sensor_id;sensor_type;location;lat;lon;timestamp;temperature;humidity
9519;DHT22;4797;50.220;8.782;2023-11-21T00:00:04;9.40;99.80
9519;DHT22;4797;50.220;8.782;2023-11-21T00:02:41;9.40;99.80
9519;DHT22;4797;50.220;8.782;2023-11-21T00:05:10;9.30;99.80
9519;DHT22;4797;50.220;8.782;2023-11-21T00:07:39;9.30;99.80
9519;DHT22;4797;50.220;8.782;2023-11-21T00:10:08;9.30;99.80
9519;DHT22;4797;50.220;8.782;2023-11-21T00:12:37;9.30;99.80
9519;DHT22;4797;50.220;8.782;2023-11-21T00:15:09;9.30;99.80
9519;DHT22;4797;50.220;8.782;2023-11-21T00:17:40;9.30;99.80
9519;DHT22;4797;50.220;8.782;2023-11-21T00:20:09;9.30;99.80
9519;DHT22;4797;50.220;8.782;2023-11-21T00:22:40;9.30;99.80
9519;DHT22;4797;50.220;8.782;2023-11-21T00:25:09;9.30;99.80
9519;DHT22;4797;50.220;8.782;2023-11-21T00:27:37;9.40;99.80
9519;DHT22;4797;50.220;8.782;2023-11-21T00:30:06;9.40;99.80
9519;DHT22;4797;50.220;8.782;2023-11-21T00:32:37;9.30;99.80
9519;DHT22;4797;50.220;8.782;2023-11-21T00:35:07;9.30;99.80
9519;DHT22;4797;50.220;8.782;2023-11-21T00:37:35;9.30;99.80
9519;DHT22;4797;50.220;8.782;2023-11-21T00:40:04;9.30;99.80
9519;DHT22;4797;50.220;8.782;2023-11-21T00:42:32;9.30;99.80
9519;DHT22;4797;50.220;8.782;2023-11-21T00:45:01;9.30;99.80
9519;DHT22;4797;50.220;8.782;2023-11-21T00:47:30;9.30;99.80
9519;DHT22;4797;50.220;8.782;2023-11-21T00:49:58;9.30;99.80
9519;DHT22;4797;50.220;8.782;2023-11-21T00:52:27;9.30;99.80
9519;DHT22;4797;50.220;8.782;2023-11-21T00:54:55;9.30;99.80
9519;DHT22;4797;50.220;8.782;2023-11-21T00:57:26;9.30;99.80
9519;DHT22;4797;50.220;8.782;2023-11-21T00:59:54;9.30;99.80
9519;DHT22;4797;50.220;8.782;2023-11-21T01:02:22;9.40;99.80
9519;DHT22;4797;50.220;8.782;2023-11-21T01:04:50;9.40;99.80
9519;DHT22;4797;50.220;8.782;2023-11-21T01:07:18;9.40;99.80
9519;DHT22;4797;50.220;8.782;2023-11-21T01:09:49;9.40;99.80
9519;DHT22;4797;50.220;8.782;2023-11-21T01:12:17;9.40;99.80
9519;DHT22;4797;50.220;8.782;2023-11-21T01:14:45;9.30;99.80
9519;DHT22;4797;50.220;8.782;2023-11-21T01:17:13;9.30;99.80
9519;DHT22;4797;50.220;8.782;2023-11-21T01:19:41;9.30;99.80
9519;DHT22;4797;50.220;8.782;2023-11-21T01:22:09;9.30;99.80
9519;DHT22;4797;50.220;8.782;2023-11-21T01:24:38;9.30;99.80
9519;DHT22;4797;50.220;8.782;2023-11-21T01:27:08;9.30;99.80
9519;DHT22;4797;50.220;8.782;2023-11-21T01:29:36;9.30;99.80
9519;DHT22;4797;50.220;8.782;2023-11-21T01:32:04;9.30;99.80
9519;DHT22;4797;50.220;8.782;2023-11-21T01:34:36;9.30;99.80
9519;DHT22;4797;50.220;8.782;2023-11-21T01:37:05;9.30;99.80
9519;DHT22;4797;50.220;8.782;2023-11-21T01:39:34;9.30;99.80
9519;DHT22;4797;50.220;8.782;2023-11-21T01:42:01;9.30;99.80
9519;DHT22;4797;50.220;8.782;2023-11-21T01:44:31;9.20;99.80
9519;DHT22;4797;50.220;8.782;2023-11-21T01:46:59;9.20;99.80
9519;DHT22;4797;50.220;8.782;2023-11-21T01:49:31;9.30;99.80
9519;DHT22;4797;50.220;8.782;2023-11-21T01:52:00;9.20;99.80
9519;DHT22;4797;50.220;8.782;2023-11-21T01:54:29;9.20;99.80
9519;DHT22;4797;50.220;8.782;2023-11-21T01:56:57;9.20;99.80
9519;DHT22;4797;50.220;8.782;2023-11-21T01:59:34;9.20;99.80
9519;DHT22;4797;50.220;8.782;2023-11-21T02:02:03;9.20;99.80
9519;DHT22;4797;50.220;8.782;2023-11-21T02:04:33;9.20;99.80
9519;DHT22;4797;50.220;8.782;2023-11-21T02:07:01;9.20;99.80
9519;DHT22;4797;50.220;8.782;2023-11-21T02:09:32;9.20;99.80
9519;DHT22;4797;50.220;8.782;2023-11-21T02:12:01;9.20;99.80
9519;DHT22;4797;50.220;8.782;2023-11-21T02:14:30;9.20;99.80
9519;DHT22;4797;50.220;8.782;2023-11-21T02:17:01;9.10;99.80
9519;DHT22;4797;50.220;8.782;2023-11-21T02:19:36;9.10;99.80
9519;DHT22;4797;50.220;8.782;2023-11-21T02:22:08;9.10;99.80
9519;DHT22;4797;50.220;8.782;2023-11-21T02:24:41;9.10;99.80
9519;DHT22;4797;50.220;8.782;2023-11-21T02:27:15;9.10;99.80
9519;DHT22;4797;50.220;8.782;2023-11-21T02:29:48;9.10;99.80
9519;DHT22;4797;50.220;8.782;2023-11-21T02:32:17;9.10;99.80
9519;DHT22;4797;50.220;8.782;2023-11-21T02:34:49;9.10;99.80
9519;DHT22;4797;50.220;8.782;2023-11-21T02:37:17;9.20;99.80
9519;DHT22;4797;50.220;8.782;2023-11-21T02:39:46;9.20;99.80
9519;DHT22;4797;50.220;8.782;2023-11-21T02:42:14;9.20;99.80
9519;DHT22;4797;50.220;8.782;2023-11-21T02:44:42;9.20;99.80
9519;DHT22;4797;50.220;8.782;2023-11-21T02:47:10;9.20;99.80
9519;DHT22;4797;50.220;8.782;2023-11-21T02:49:38;9.20;99.80
9519;DHT22;4797;50.220;8.782;2023-11-21T02:52:07;9.20;99.80
9519;DHT22;4797;50.220;8.782;2023-11-21T02:54:35;9.20;99.80
9519;DHT22;4797;50.220;8.782;2023-11-21T02:57:05;9.20;99.80
9519;DHT22;4797;50.220;8.782;2023-11-21T02:59:34;9.20;99.80
9519;DHT22;4797;50.220;8.782;2023-11-21T03:02:02;9.20;99.80
9519;DHT22;4797;50.220;8.782;2023-11-21T03:04:30;9.20;99.80
9519;DHT22;4797;50.220;8.782;2023-11-21T03:06:59;9.20;99.80
9519;DHT22;4797;50.220;8.782;2023-11-21T03:09:27;9.20;99.80
9519;DHT22;4797;50.220;8.782;2023-11-21T03:11:55;9.20;99.80
9519;DHT22;4797;50.220;8.782;2023-11-21T03:14:24;9.20;99.80
9519;DHT22;4797;50.220;8.782;2023-11-21T03:16:52;9.20;99.80
9519;DHT22;4797;50.220;8.782;2023-11-21T03:19:22;9.20;99.80
9519;DHT22;4797;50.220;8.782;2023-11-21T03:21:50;9.20;99.80
9519;DHT22;4797;50.220;8.782;2023-11-21T03:24:19;9.20;99.80
9519;DHT22;4797;50.220;8.782;2023-11-21T03:26:49;9.20;99.80
9519;DHT22;4797;50.220;8.782;2023-11-21T03:29:17;9.20;99.80
9519;DHT22;4797;50.220;8.782;2023-11-21T03:31:46;9.10;99.80
9519;DHT22;4797;50.220;8.782;2023-11-21T03:34:16;9.10;99.80
9519;DHT22;4797;50.220;8.782;2023-11-21T03:36:44;9.10;99.80
9519;DHT22;4797;50.220;8.782;2023-11-21T03:39:13;9.10;99.80
9519;DHT22;4797;50.220;8.782;2023-11-21T03:41:40;9.10;99.80
9519;DHT22;4797;50.220;8.782;2023-11-21T03:44:08;9.10;99.80
9519;DHT22;4797;50.220;8.782;2023-11-21T03:46:37;9.10;99.80
9519;DHT22;4797;50.220;8.782;2023-11-21T03:49:06;9.10;99.80
9519;DHT22;4797;50.220;8.782;2023-11-21T03:51:34;9.10;99.80
9519;DHT22;4797;50.220;8.782;2023-11-21T03:54:02;9.10;99.80
9519;DHT22;4797;50.220;8.782;2023-11-21T03:56:30;9.10;99.80
9519;DHT22;4797;50.220;8.782;2023-11-21T03:58:58;9.10;99.80
9519;DHT22;4797;50.220;8.782;2023-11-21T04:01:26;9.10;99.80
9519;DHT22;4797;50.220;8.782;2023-11-21T04:03:54;9.10;99.80
9519;DHT22;4797;50.220;8.782;2023-11-21T04:06:23;9.10;99.80
9519;DHT22;4797;50.220;8.782;2023-11-21T04:08:52;9.10;99.80
9519;DHT22;4797;50.220;8.782;2023-11-21T04:11:19;9.10;99.80
9519;DHT22;4797;50.220;8.782;2023-11-21T04:13:47;9.10;99.80
9519;DHT22;4797;50.220;8.782;2023-11-21T04:16:15;9.10;99.80
9519;DHT22;4797;50.220;8.782;2023-11-21T04:18:45;9.10;99.80
9519;DHT22;4797;50.220;8.782;2023-11-21T04:21:13;9.10;99.80
9519;DHT22;4797;50.220;8.782;2023-11-21T04:23:42;9.10;99.80
9519;DHT22;4797;50.220;8.782;2023-11-21T04:26:10;9.10;99.80
9519;DHT22;4797;50.220;8.782;2023-11-21T04:28:38;9.10;99.80
9519;DHT22;4797;50.220;8.782;2023-11-21T04:31:06;9.10;99.80
9519;DHT22;4797;50.220;8.782;2023-11-21T04:33:34;9.10;99.80
9519;DHT22;4797;50.220;8.782;2023-11-21T04:36:03;9.10;99.80
9519;DHT22;4797;50.220;8.782;2023-11-21T04:38:31;9.10;99.80
9519;DHT22;4797;50.220;8.782;2023-11-21T04:41:01;9.10;99.80
9519;DHT22;4797;50.220;8.782;2023-11-21T04:43:29;9.10;99.80
9519;DHT22;4797;50.220;8.782;2023-11-21T04:45:57;9.10;99.80
9519;DHT22;4797;50.220;8.782;2023-11-21T04:48:25;9.10;99.80
9519;DHT22;4797;50.220;8.782;2023-11-21T04:50:53;9.10;99.80
9519;DHT22;4797;50.220;8.782;2023-11-21T04:53:21;9.10;99.80
9519;DHT22;4797;50.220;8.782;2023-11-21T04:55:49;9.10;99.80
9519;DHT22;4797;50.220;8.782;2023-11-21T04:58:18;9.10;99.80
9519;DHT22;4797;50.220;8.782;2023-11-21T05:00:47;9.00;99.80
9519;DHT22;4797;50.220;8.782;2023-11-21T05:03:16;9.00;99.80
9519;DHT22;4797;50.220;8.782;2023-11-21T05:05:44;9.00;99.80
9519;DHT22;4797;50.220;8.782;2023-11-21T05:08:12;9.00;99.80
9519;DHT22;4797;50.220;8.782;2023-11-21T05:10:40;9.00;99.80
9519;DHT22;4797;50.220;8.782;2023-11-21T05:13:08;9.00;99.80
9519;DHT22;4797;50.220;8.782;2023-11-21T05:15:38;9.00;99.80
9519;DHT22;4797;50.220;8.782;2023-11-21T05:18:07;9.00;99.80
9519;DHT22;4797;50.220;8.782;2023-11-21T05:20:35;9.00;99.80
9519;DHT22;4797;50.220;8.782;2023-11-21T05:23:04;9.00;99.80
9519;DHT22;4797;50.220;8.782;2023-11-21T05:25:33;9.00;99.80
9519;DHT22;4797;50.220;8.782;2023-11-21T05:28:05;9.00;99.80
9519;DHT22;4797;50.220;8.782;2023-11-21T05:30:33;9.00;99.80
9519;DHT22;4797;50.220;8.782;2023-11-21T05:33:03;9.00;99.80
9519;DHT22;4797;50.220;8.782;2023-11-21T05:35:31;9.00;99.80
9519;DHT22;4797;50.220;8.782;2023-11-21T05:38:01;9.00;99.80
9519;DHT22;4797;50.220;8.782;2023-11-21T05:40:29;9.00;99.80
9519;DHT22;4797;50.220;8.782;2023-11-21T05:42:57;9.00;99.80
9519;DHT22;4797;50.220;8.782;2023-11-21T05:45:25;9.00;99.80
9519;DHT22;4797;50.220;8.782;2023-11-21T05:47:58;9.00;99.80
9519;DHT22;4797;50.220;8.782;2023-11-21T05:50:30;9.00;99.80
9519;DHT22;4797;50.220;8.782;2023-11-21T05:52:58;9.00;99.80
9519;DHT22;4797;50.220;8.782;2023-11-21T05:55:27;9.00;99.80
9519;DHT22;4797;50.220;8.782;2023-11-21T05:57:55;9.00;99.80
9519;DHT22;4797;50.220;8.782;2023-11-21T06:00:23;9.00;99.80
9519;DHT22;4797;50.220;8.782;2023-11-21T06:02:52;9.00;99.80
9519;DHT22;4797;50.220;8.782;2023-11-21T06:05:23;8.90;99.80
9519;DHT22;4797;50.220;8.782;2023-11-21T06:07:55;8.90;99.80
9519;DHT22;4797;50.220;8.782;2023-11-21T06:10:25;8.80;99.80
9519;DHT22;4797;50.220;8.782;2023-11-21T06:12:53;8.80;99.80
9519;DHT22;4797;50.220;8.782;2023-11-21T06:15:21;8.70;99.80
9519;DHT22;4797;50.220;8.782;2023-11-21T06:17:52;8.70;99.80
9519;DHT22;4797;50.220;8.782;2023-11-21T06:20:21;8.70;99.80
9519;DHT22;4797;50.220;8.782;2023-11-21T06:22:50;8.70;99.80
9519;DHT22;4797;50.220;8.782;2023-11-21T06:25:20;8.70;99.80
9519;DHT22;4797;50.220;8.782;2023-11-21T06:27:48;8.80;99.80
9519;DHT22;4797;50.220;8.782;2023-11-21T06:30:16;8.80;99.80
9519;DHT22;4797;50.220;8.782;2023-11-21T06:32:46;8.70;99.80
9519;DHT22;4797;50.220;8.782;2023-11-21T06:35:15;8.70;99.80
9519;DHT22;4797;50.220;8.782;2023-11-21T06:37:44;8.70;99.80
9519;DHT22;4797;50.220;8.782;2023-11-21T06:40:14;8.60;99.80
9519;DHT22;4797;50.220;8.782;2023-11-21T06:42:48;8.70;99.80
9519;DHT22;4797;50.220;8.782;2023-11-21T06:45:17;8.70;99.80
9519;DHT22;4797;50.220;8.782;2023-11-21T06:47:46;8.60;99.80
9519;DHT22;4797;50.220;8.782;2023-11-21T06:50:15;8.60;99.80
9519;DHT22;4797;50.220;8.782;2023-11-21T06:52:45;8.50;99.80
9519;DHT22;4797;50.220;8.782;2023-11-21T06:55:13;8.50;99.80
9519;DHT22;4797;50.220;8.782;2023-11-21T06:57:42;8.50;99.80
9519;DHT22;4797;50.220;8.782;2023-11-21T07:00:14;8.40;99.80
9519;DHT22;4797;50.220;8.782;2023-11-21T07:02:44;8.40;99.80
9519;DHT22;4797;50.220;8.782;2023-11-21T07:05:12;8.40;99.80
9519;DHT22;4797;50.220;8.782;2023-11-21T07:07:41;8.40;99.80
9519;DHT22;4797;50.220;8.782;2023-11-21T07:10:10;8.40;99.80
9519;DHT22;4797;50.220;8.782;2023-11-21T07:12:38;8.40;99.80
9519;DHT22;4797;50.220;8.782;2023-11-21T07:15:08;8.30;99.80
9519;DHT22;4797;50.220;8.782;2023-11-21T07:17:38;8.40;99.80
9519;DHT22;4797;50.220;8.782;2023-11-21T07:20:08;8.40;99.80
9519;DHT22;4797;50.220;8.782;2023-11-21T07:22:37;8.50;99.80
9519;DHT22;4797;50.220;8.782;2023-11-21T07:25:06;8.50;99.80
9519;DHT22;4797;50.220;8.782;2023-11-21T07:27:36;8.40;99.80
9519;DHT22;4797;50.220;8.782;2023-11-21T07:30:04;8.40;99.80
9519;DHT22;4797;50.220;8.782;2023-11-21T07:32:34;8.40;99.80
9519;DHT22;4797;50.220;8.782;2023-11-21T07:35:04;8.40;99.80
9519;DHT22;4797;50.220;8.782;2023-11-21T07:37:32;8.40;99.80
9519;DHT22;4797;50.220;8.782;2023-11-21T07:40:00;8.30;99.80
9519;DHT22;4797;50.220;8.782;2023-11-21T07:42:29;8.40;99.80
9519;DHT22;4797;50.220;8.782;2023-11-21T07:44:58;8.40;99.80
9519;DHT22;4797;50.220;8.782;2023-11-21T07:47:26;8.40;99.80
9519;DHT22;4797;50.220;8.782;2023-11-21T07:49:54;8.40;99.80
9519;DHT22;4797;50.220;8.782;2023-11-21T07:52:25;8.50;99.80
9519;DHT22;4797;50.220;8.782;2023-11-21T07:54:52;8.50;99.80
9519;DHT22;4797;50.220;8.782;2023-11-21T07:57:20;8.60;99.80
9519;DHT22;4797;50.220;8.782;2023-11-21T07:59:48;8.60;99.80
9519;DHT22;4797;50.220;8.782;2023-11-21T08:02:16;8.60;99.80
9519;DHT22;4797;50.220;8.782;2023-11-21T08:04:44;8.60;99.80
9519;DHT22;4797;50.220;8.782;2023-11-21T08:07:17;8.60;99.80
9519;DHT22;4797;50.220;8.782;2023-11-21T08:09:49;8.60;99.80
9519;DHT22;4797;50.220;8.782;2023-11-21T08:12:20;8.60;99.80
9519;DHT22;4797;50.220;8.782;2023-11-21T08:14:50;8.60;99.80
9519;DHT22;4797;50.220;8.782;2023-11-21T08:17:18;8.60;99.80
9519;DHT22;4797;50.220;8.782;2023-11-21T08:19:47;8.60;99.80
9519;DHT22;4797;50.220;8.782;2023-11-21T08:22:16;8.60;99.80
9519;DHT22;4797;50.220;8.782;2023-11-21T08:24:47;8.60;99.80
9519;DHT22;4797;50.220;8.782;2023-11-21T08:27:16;8.60;99.80
9519;DHT22;4797;50.220;8.782;2023-11-21T08:29:44;8.60;99.80
9519;DHT22;4797;50.220;8.782;2023-11-21T08:32:18;8.70;99.80
9519;DHT22;4797;50.220;8.782;2023-11-21T08:35:00;8.70;99.80
9519;DHT22;4797;50.220;8.782;2023-11-21T08:37:30;8.70;99.80
9519;DHT22;4797;50.220;8.782;2023-11-21T08:40:00;8.80;99.80
9519;DHT22;4797;50.220;8.782;2023-11-21T08:42:32;8.80;99.80
9519;DHT22;4797;50.220;8.782;2023-11-21T08:45:00;8.80;99.80
9519;DHT22;4797;50.220;8.782;2023-11-21T08:47:27;8.70;99.80
9519;DHT22;4797;50.220;8.782;2023-11-21T08:49:58;8.70;99.80
9519;DHT22;4797;50.220;8.782;2023-11-21T08:52:32;8.70;99.80
9519;DHT22;4797;50.220;8.782;2023-11-21T08:54:59;8.70;99.80
9519;DHT22;4797;50.220;8.782;2023-11-21T08:57:55;8.70;99.80
9519;DHT22;4797;50.220;8.782;2023-11-21T09:00:27;8.70;99.80
9519;DHT22;4797;50.220;8.782;2023-11-21T09:03:01;8.60;99.80
9519;DHT22;4797;50.220;8.782;2023-11-21T09:05:38;8.50;99.80
9519;DHT22;4797;50.220;8.782;2023-11-21T09:08:06;8.40;99.80
9519;DHT22;4797;50.220;8.782;2023-11-21T09:10:34;8.30;99.80
9519;DHT22;4797;50.220;8.782;2023-11-21T09:13:10;8.20;99.80
9519;DHT22;4797;50.220;8.782;2023-11-21T09:15:41;8.10;99.80
9519;DHT22;4797;50.220;8.782;2023-11-21T09:18:15;8.10;99.80
9519;DHT22;4797;50.220;8.782;2023-11-21T09:20:43;8.20;99.80
9519;DHT22;4797;50.220;8.782;2023-11-21T09:23:12;8.30;99.80
9519;DHT22;4797;50.220;8.782;2023-11-21T09:25:39;8.40;99.80
9519;DHT22;4797;50.220;8.782;2023-11-21T09:28:07;8.60;99.80
9519;DHT22;4797;50.220;8.782;2023-11-21T09:30:37;8.70;99.80
9519;DHT22;4797;50.220;8.782;2023-11-21T09:33:05;8.90;99.80
9519;DHT22;4797;50.220;8.782;2023-11-21T09:35:37;9.10;99.80
9519;DHT22;4797;50.220;8.782;2023-11-21T09:38:05;9.20;99.80
9519;DHT22;4797;50.220;8.782;2023-11-21T09:40:37;9.30;99.80
9519;DHT22;4797;50.220;8.782;2023-11-21T09:43:06;9.40;99.80
9519;DHT22;4797;50.220;8.782;2023-11-21T09:45:38;9.40;99.80
9519;DHT22;4797;50.220;8.782;2023-11-21T09:48:07;9.50;99.80
9519;DHT22;4797;50.220;8.782;2023-11-21T09:50:39;9.50;99.80
9519;DHT22;4797;50.220;8.782;2023-11-21T09:53:13;9.60;99.80
9519;DHT22;4797;50.220;8.782;2023-11-21T09:55:43;9.60;99.80
9519;DHT22;4797;50.220;8.782;2023-11-21T09:58:11;9.70;99.80
9519;DHT22;4797;50.220;8.782;2023-11-21T10:00:42;9.70;99.80
9519;DHT22;4797;50.220;8.782;2023-11-21T10:03:11;9.70;99.80
9519;DHT22;4797;50.220;8.782;2023-11-21T10:05:41;9.70;99.80
9519;DHT22;4797;50.220;8.782;2023-11-21T10:08:10;9.70;99.80
9519;DHT22;4797;50.220;8.782;2023-11-21T10:10:42;9.70;99.80
9519;DHT22;4797;50.220;8.782;2023-11-21T10:13:12;9.70;99.80
9519;DHT22;4797;50.220;8.782;2023-11-21T10:15:49;9.80;99.80
9519;DHT22;4797;50.220;8.782;2023-11-21T10:18:17;9.80;99.80
9519;DHT22;4797;50.220;8.782;2023-11-21T10:20:46;9.80;99.80
9519;DHT22;4797;50.220;8.782;2023-11-21T10:23:18;9.90;99.80
9519;DHT22;4797;50.220;8.782;2023-11-21T10:25:45;9.90;99.80
9519;DHT22;4797;50.220;8.782;2023-11-21T10:28:13;9.90;99.80
9519;DHT22;4797;50.220;8.782;2023-11-21T10:30:42;10.00;99.80
9519;DHT22;4797;50.220;8.782;2023-11-21T10:33:12;10.20;99.80
9519;DHT22;4797;50.220;8.782;2023-11-21T10:35:43;10.30;99.80
9519;DHT22;4797;50.220;8.782;2023-11-21T10:38:13;10.40;99.80
9519;DHT22;4797;50.220;8.782;2023-11-21T10:40:41;10.50;99.80
9519;DHT22;4797;50.220;8.782;2023-11-21T10:43:11;10.60;99.80
9519;DHT22;4797;50.220;8.782;2023-11-21T10:45:40;10.80;99.80
9519;DHT22;4797;50.220;8.782;2023-11-21T10:48:10;11.00;99.80
9519;DHT22;4797;50.220;8.782;2023-11-21T10:50:39;11.30;99.80
9519;DHT22;4797;50.220;8.782;2023-11-21T10:53:07;11.70;99.80
9519;DHT22;4797;50.220;8.782;2023-11-21T10:55:35;12.20;99.80
9519;DHT22;4797;50.220;8.782;2023-11-21T10:58:04;12.70;99.80
9519;DHT22;4797;50.220;8.782;2023-11-21T11:00:33;13.20;99.80
9519;DHT22;4797;50.220;8.782;2023-11-21T11:03:02;13.90;99.80
9519;DHT22;4797;50.220;8.782;2023-11-21T11:05:31;14.70;99.80
9519;DHT22;4797;50.220;8.782;2023-11-21T11:08:04;15.20;99.80
9519;DHT22;4797;50.220;8.782;2023-11-21T11:10:33;15.20;99.80
9519;DHT22;4797;50.220;8.782;2023-11-21T11:13:02;14.80;99.80
9519;DHT22;4797;50.220;8.782;2023-11-21T11:15:30;14.30;99.80
9519;DHT22;4797;50.220;8.782;2023-11-21T11:17:58;13.80;99.80
9519;DHT22;4797;50.220;8.782;2023-11-21T11:20:30;13.10;99.80
9519;DHT22;4797;50.220;8.782;2023-11-21T11:23:13;12.80;99.80
9519;DHT22;4797;50.220;8.782;2023-11-21T11:26:02;12.40;99.80
9519;DHT22;4797;50.220;8.782;2023-11-21T11:28:38;12.20;99.80
9519;DHT22;4797;50.220;8.782;2023-11-21T11:31:22;12.30;99.80
9519;DHT22;4797;50.220;8.782;2023-11-21T11:34:00;12.30;99.80
9519;DHT22;4797;50.220;8.782;2023-11-21T11:36:35;12.40;99.80
9519;DHT22;4797;50.220;8.782;2023-11-21T11:39:27;12.40;99.80
9519;DHT22;4797;50.220;8.782;2023-11-21T11:41:56;12.50;99.80
9519;DHT22;4797;50.220;8.782;2023-11-21T11:44:47;12.70;99.80
9519;DHT22;4797;50.220;8.782;2023-11-21T11:47:21;12.80;99.80
9519;DHT22;4797;50.220;8.782;2023-11-21T11:50:06;12.70;99.80
9519;DHT22;4797;50.220;8.782;2023-11-21T11:52:36;12.60;99.80
9519;DHT22;4797;50.220;8.782;2023-11-21T11:55:08;12.40;99.80
9519;DHT22;4797;50.220;8.782;2023-11-21T11:57:41;12.40;99.80
9519;DHT22;4797;50.220;8.782;2023-11-21T12:00:15;12.30;99.80
9519;DHT22;4797;50.220;8.782;2023-11-21T12:02:46;12.30;99.80
9519;DHT22;4797;50.220;8.782;2023-11-21T12:05:15;12.10;99.80
9519;DHT22;4797;50.220;8.782;2023-11-21T12:07:46;11.90;99.80
9519;DHT22;4797;50.220;8.782;2023-11-21T12:10:17;11.70;99.80
9519;DHT22;4797;50.220;8.782;2023-11-21T12:12:49;11.70;99.80
9519;DHT22;4797;50.220;8.782;2023-11-21T12:15:17;11.60;99.80
9519;DHT22;4797;50.220;8.782;2023-11-21T12:17:46;11.60;99.80
9519;DHT22;4797;50.220;8.782;2023-11-21T12:20:14;11.50;99.80
9519;DHT22;4797;50.220;8.782;2023-11-21T12:22:45;11.50;99.80
9519;DHT22;4797;50.220;8.782;2023-11-21T12:25:18;11.50;99.80
9519;DHT22;4797;50.220;8.782;2023-11-21T12:27:47;11.40;99.80
9519;DHT22;4797;50.220;8.782;2023-11-21T12:30:17;11.30;99.80
9519;DHT22;4797;50.220;8.782;2023-11-21T12:32:50;11.20;99.80
9519;DHT22;4797;50.220;8.782;2023-11-21T12:35:21;11.20;99.80
9519;DHT22;4797;50.220;8.782;2023-11-21T12:37:49;11.20;99.80
9519;DHT22;4797;50.220;8.782;2023-11-21T12:40:19;11.30;99.80
9519;DHT22;4797;50.220;8.782;2023-11-21T12:42:52;11.30;99.80
9519;DHT22;4797;50.220;8.782;2023-11-21T12:45:21;11.30;99.80
9519;DHT22;4797;50.220;8.782;2023-11-21T12:47:50;11.30;99.80
9519;DHT22;4797;50.220;8.782;2023-11-21T12:50:19;11.30;99.80
9519;DHT22;4797;50.220;8.782;2023-11-21T12:52:51;11.30;99.80
9519;DHT22;4797;50.220;8.782;2023-11-21T12:55:23;11.40;99.80
9519;DHT22;4797;50.220;8.782;2023-11-21T12:57:52;11.40;99.80
9519;DHT22;4797;50.220;8.782;2023-11-21T13:00:30;11.50;99.80
9519;DHT22;4797;50.220;8.782;2023-11-21T13:03:00;11.60;99.80
9519;DHT22;4797;50.220;8.782;2023-11-21T13:05:29;11.70;99.80
9519;DHT22;4797;50.220;8.782;2023-11-21T13:07:58;11.90;99.80
9519;DHT22;4797;50.220;8.782;2023-11-21T13:10:31;12.00;99.80
9519;DHT22;4797;50.220;8.782;2023-11-21T13:13:01;12.00;99.80
9519;DHT22;4797;50.220;8.782;2023-11-21T13:15:32;12.00;99.80
9519;DHT22;4797;50.220;8.782;2023-11-21T13:18:02;12.10;99.80
9519;DHT22;4797;50.220;8.782;2023-11-21T13:20:51;12.00;99.80
9519;DHT22;4797;50.220;8.782;2023-11-21T13:23:37;11.80;99.80
9519;DHT22;4797;50.220;8.782;2023-11-21T13:26:09;11.60;99.80
9519;DHT22;4797;50.220;8.782;2023-11-21T13:28:38;11.50;99.80
9519;DHT22;4797;50.220;8.782;2023-11-21T13:31:08;11.30;99.80
9519;DHT22;4797;50.220;8.782;2023-11-21T13:33:49;11.20;99.80
9519;DHT22;4797;50.220;8.782;2023-11-21T13:36:24;11.00;99.80
9519;DHT22;4797;50.220;8.782;2023-11-21T13:38:57;10.90;99.80
9519;DHT22;4797;50.220;8.782;2023-11-21T13:41:29;10.80;99.80
9519;DHT22;4797;50.220;8.782;2023-11-21T13:44:01;10.80;99.80
9519;DHT22;4797;50.220;8.782;2023-11-21T13:46:42;10.70;99.80
9519;DHT22;4797;50.220;8.782;2023-11-21T13:49:13;10.60;99.80
9519;DHT22;4797;50.220;8.782;2023-11-21T13:51:45;10.50;99.80
9519;DHT22;4797;50.220;8.782;2023-11-21T13:54:17;10.50;99.80
9519;DHT22;4797;50.220;8.782;2023-11-21T13:56:48;10.40;99.80
9519;DHT22;4797;50.220;8.782;2023-11-21T13:59:17;10.40;99.80
9519;DHT22;4797;50.220;8.782;2023-11-21T14:01:48;10.40;99.80
9519;DHT22;4797;50.220;8.782;2023-11-21T14:04:24;10.40;99.80
9519;DHT22;4797;50.220;8.782;2023-11-21T14:07:21;10.40;99.80
9519;DHT22;4797;50.220;8.782;2023-11-21T14:09:59;10.50;99.80
9519;DHT22;4797;50.220;8.782;2023-11-21T14:12:29;10.40;99.80
9519;DHT22;4797;50.220;8.782;2023-11-21T14:15:04;10.40;99.80
9519;DHT22;4797;50.220;8.782;2023-11-21T14:17:36;10.50;99.80
9519;DHT22;4797;50.220;8.782;2023-11-21T14:20:07;10.50;99.80
9519;DHT22;4797;50.220;8.782;2023-11-21T14:22:42;10.40;99.80
9519;DHT22;4797;50.220;8.782;2023-11-21T14:25:11;10.40;99.80
9519;DHT22;4797;50.220;8.782;2023-11-21T14:27:40;10.40;99.80
9519;DHT22;4797;50.220;8.782;2023-11-21T14:30:11;10.40;99.80
9519;DHT22;4797;50.220;8.782;2023-11-21T14:32:40;10.40;99.80
9519;DHT22;4797;50.220;8.782;2023-11-21T14:35:08;10.30;99.80
9519;DHT22;4797;50.220;8.782;2023-11-21T14:37:36;10.30;99.80
9519;DHT22;4797;50.220;8.782;2023-11-21T14:40:05;10.30;99.80
9519;DHT22;4797;50.220;8.782;2023-11-21T14:42:35;10.30;99.80
9519;DHT22;4797;50.220;8.782;2023-11-21T14:45:08;10.20;99.80
9519;DHT22;4797;50.220;8.782;2023-11-21T14:47:39;10.20;99.80
9519;DHT22;4797;50.220;8.782;2023-11-21T14:50:11;10.20;99.80
9519;DHT22;4797;50.220;8.782;2023-11-21T14:52:53;10.20;99.80
9519;DHT22;4797;50.220;8.782;2023-11-21T14:55:26;10.20;99.80
9519;DHT22;4797;50.220;8.782;2023-11-21T14:57:59;10.20;99.80
9519;DHT22;4797;50.220;8.782;2023-11-21T15:00:32;10.20;99.80
9519;DHT22;4797;50.220;8.782;2023-11-21T15:03:08;10.20;99.80
9519;DHT22;4797;50.220;8.782;2023-11-21T15:05:38;10.10;99.80
9519;DHT22;4797;50.220;8.782;2023-11-21T15:08:06;10.10;99.80
9519;DHT22;4797;50.220;8.782;2023-11-21T15:10:47;10.10;99.80
9519;DHT22;4797;50.220;8.782;2023-11-21T15:13:21;10.10;99.80
9519;DHT22;4797;50.220;8.782;2023-11-21T15:15:51;10.00;99.80
9519;DHT22;4797;50.220;8.782;2023-11-21T15:18:21;10.00;99.80
9519;DHT22;4797;50.220;8.782;2023-11-21T15:20:49;10.00;99.80
9519;DHT22;4797;50.220;8.782;2023-11-21T15:23:17;10.00;99.80
9519;DHT22;4797;50.220;8.782;2023-11-21T15:25:46;10.00;99.80
9519;DHT22;4797;50.220;8.782;2023-11-21T15:28:14;10.00;99.80
9519;DHT22;4797;50.220;8.782;2023-11-21T15:30:44;9.90;99.80
9519;DHT22;4797;50.220;8.782;2023-11-21T15:33:16;9.90;99.80
9519;DHT22;4797;50.220;8.782;2023-11-21T15:35:45;9.90;99.80
9519;DHT22;4797;50.220;8.782;2023-11-21T15:38:13;9.90;99.80
9519;DHT22;4797;50.220;8.782;2023-11-21T15:40:42;9.90;99.80
9519;DHT22;4797;50.220;8.782;2023-11-21T15:43:12;9.90;99.80
9519;DHT22;4797;50.220;8.782;2023-11-21T15:45:40;9.90;99.80
9519;DHT22;4797;50.220;8.782;2023-11-21T15:48:11;9.90;99.80
9519;DHT22;4797;50.220;8.782;2023-11-21T15:50:42;9.90;99.80
9519;DHT22;4797;50.220;8.782;2023-11-21T15:53:11;9.90;99.80
9519;DHT22;4797;50.220;8.782;2023-11-21T15:55:44;9.80;99.80
9519;DHT22;4797;50.220;8.782;2023-11-21T15:58:12;9.70;99.80
9519;DHT22;4797;50.220;8.782;2023-11-21T16:00:43;9.70;99.80
9519;DHT22;4797;50.220;8.782;2023-11-21T16:03:11;9.70;99.80
9519;DHT22;4797;50.220;8.782;2023-11-21T16:05:42;9.60;99.80
9519;DHT22;4797;50.220;8.782;2023-11-21T16:08:11;9.60;99.80
9519;DHT22;4797;50.220;8.782;2023-11-21T16:10:39;9.60;99.80
9519;DHT22;4797;50.220;8.782;2023-11-21T16:13:07;9.60;99.80
9519;DHT22;4797;50.220;8.782;2023-11-21T16:15:36;9.60;99.80
9519;DHT22;4797;50.220;8.782;2023-11-21T16:18:11;9.50;99.80
9519;DHT22;4797;50.220;8.782;2023-11-21T16:20:40;9.50;99.80
9519;DHT22;4797;50.220;8.782;2023-11-21T16:23:12;9.50;99.80
9519;DHT22;4797;50.220;8.782;2023-11-21T16:25:43;9.50;99.80
9519;DHT22;4797;50.220;8.782;2023-11-21T16:28:12;9.50;99.80
9519;DHT22;4797;50.220;8.782;2023-11-21T16:30:42;9.50;99.80